createdAt,value
2023-03-08T00:00:08.687Z,65
2023-03-08T00:01:08.592Z,65
2023-03-08T00:02:08.538Z,65
2023-03-08T00:03:08.359Z,65
2023-03-08T00:04:08.678Z,65
2023-03-08T00:05:08.313Z,65
2023-03-08T00:06:07.878Z,65
2023-03-08T00:07:08.589Z,65
2023-03-08T00:08:08.219Z,65
2023-03-08T00:09:08.190Z,65
2023-03-08T00:10:08.268Z,65
2023-03-08T00:11:07.989Z,65
2023-03-08T00:12:07.859Z,65
2023-03-08T00:13:07.843Z,65
2023-03-08T00:14:07.830Z,65
2023-03-08T00:15:08.667Z,65
2023-03-08T00:17:07.765Z,65
2023-03-08T00:18:08.301Z,65
2023-03-08T00:19:08.160Z,65
2023-03-08T00:20:08.129Z,65
2023-03-08T00:21:08.257Z,65
2023-03-08T00:22:08.186Z,65
2023-03-08T00:24:08.061Z,64
2023-03-08T00:25:07.935Z,65
2023-03-08T00:26:07.787Z,64
2023-03-08T00:27:07.834Z,64
2023-03-08T00:30:08.483Z,64
2023-03-08T00:31:08.681Z,64
2023-03-08T00:32:08.582Z,64
2023-03-08T00:33:08.389Z,64
2023-03-08T00:34:08.439Z,64
2023-03-08T00:35:08.191Z,64
2023-03-08T00:36:08.499Z,64
2023-03-08T00:37:08.467Z,64
2023-03-08T00:39:08.070Z,64
2023-03-08T00:40:08.029Z,64
2023-03-08T00:41:08.407Z,64
2023-03-08T00:42:08.290Z,64
2023-03-08T00:43:08.048Z,64
2023-03-08T00:44:08.078Z,64
2023-03-08T00:45:07.716Z,64
2023-03-08T00:46:07.746Z,64
2023-03-08T00:47:08.436Z,64
2023-03-08T00:48:08.402Z,64
2023-03-08T00:49:08.313Z,64
2023-03-08T00:50:08.135Z,64
2023-03-08T00:51:08.412Z,64
2023-03-08T00:52:08.237Z,64
2023-03-08T00:53:08.126Z,64
2023-03-08T00:54:08.132Z,64
2023-03-08T00:56:08.092Z,64
2023-03-08T00:57:07.976Z,64
2023-03-08T00:58:07.724Z,64
2023-03-08T00:59:08.702Z,64
2023-03-08T01:00:08.593Z,64
2023-03-08T01:01:08.087Z,64
2023-03-08T01:02:08.070Z,64
2023-03-08T01:03:07.895Z,64
2023-03-08T01:04:07.654Z,64
2023-03-08T01:05:07.783Z,64
2023-03-08T01:06:07.828Z,64
2023-03-08T01:07:08.069Z,64
2023-03-08T01:08:07.818Z,64
2023-03-08T01:09:07.678Z,64
2023-03-08T01:10:08.135Z,64
2023-03-08T01:11:08.275Z,64
2023-03-08T01:12:08.459Z,64
2023-03-08T01:13:08.095Z,64
2023-03-08T01:14:08.135Z,64
2023-03-08T01:16:09.723Z,64
2023-03-08T01:17:08.148Z,64
2023-03-08T01:18:07.703Z,64
2023-03-08T01:19:07.821Z,64
2023-03-08T01:20:07.547Z,64
2023-03-08T01:21:08.014Z,64
2023-03-08T01:22:07.958Z,64
2023-03-08T01:23:08.079Z,64
2023-03-08T01:24:07.888Z,64
2023-03-08T01:25:07.704Z,64
2023-03-08T01:26:08.230Z,64
2023-03-08T01:28:08.253Z,64
2023-03-08T01:29:08.007Z,64
2023-03-08T01:30:07.777Z,64
2023-03-08T01:31:07.711Z,64
2023-03-08T01:32:08.752Z,63
2023-03-08T01:33:08.452Z,64
2023-03-08T01:34:08.495Z,63
2023-03-08T01:35:08.464Z,63
2023-03-08T01:36:07.750Z,63
2023-03-08T01:37:07.652Z,63
2023-03-08T01:38:07.538Z,63
2023-03-08T01:39:08.498Z,63
2023-03-08T01:40:08.307Z,63
2023-03-08T01:41:07.511Z,63
2023-03-08T01:42:08.645Z,63
2023-03-08T01:43:08.565Z,63
2023-03-08T01:44:08.315Z,63
2023-03-08T01:45:08.365Z,63
2023-03-08T01:46:08.012Z,63
2023-03-08T01:47:07.819Z,63
2023-03-08T01:48:07.787Z,63
2023-03-08T01:49:07.755Z,64
2023-03-08T01:50:08.451Z,63
2023-03-08T01:52:08.247Z,63
2023-03-08T01:53:08.540Z,64
2023-03-08T01:54:08.237Z,63
2023-03-08T01:55:08.300Z,63
2023-03-08T01:56:08.651Z,63
2023-03-08T01:57:08.654Z,63
2023-03-08T01:58:08.453Z,63
2023-03-08T01:59:08.344Z,63
2023-03-08T02:00:08.116Z,63
2023-03-08T02:01:08.496Z,63
2023-03-08T02:03:08.223Z,63
2023-03-08T02:04:08.272Z,63
2023-03-08T02:05:08.319Z,63
2023-03-08T02:06:08.264Z,63
2023-03-08T02:07:08.283Z,63
2023-03-08T02:08:08.125Z,63
2023-03-08T02:09:08.195Z,63
2023-03-08T02:10:07.916Z,63
2023-03-08T02:11:08.337Z,63
2023-03-08T02:12:08.229Z,63
2023-03-08T02:14:07.820Z,64
2023-03-08T02:15:07.858Z,63
2023-03-08T02:16:07.906Z,63
2023-03-08T02:18:07.776Z,63
2023-03-08T02:19:07.738Z,63
2023-03-08T02:20:07.805Z,63
2023-03-08T02:21:07.816Z,63
2023-03-08T02:22:07.743Z,63
2023-03-08T02:23:07.740Z,63
2023-03-08T02:24:07.591Z,63
2023-03-08T02:25:08.359Z,63
2023-03-08T02:27:08.132Z,63
2023-03-08T02:28:08.079Z,63
2023-03-08T02:29:07.844Z,63
2023-03-08T02:31:07.582Z,63
2023-03-08T02:32:08.621Z,63
2023-03-08T02:33:08.418Z,63
2023-03-08T02:34:08.336Z,63
2023-03-08T02:35:08.209Z,64
2023-03-08T02:36:08.496Z,64
2023-03-08T02:37:08.282Z,64
2023-03-08T02:38:08.050Z,64
2023-03-08T02:40:07.989Z,64
2023-03-08T02:41:08.104Z,64
2023-03-08T02:43:08.108Z,64
2023-03-08T02:44:07.898Z,64
2023-03-08T02:45:07.858Z,64
2023-03-08T02:46:07.854Z,64
2023-03-08T02:47:07.964Z,64
2023-03-08T02:48:07.938Z,64
2023-03-08T02:49:07.745Z,64
2023-03-08T02:50:07.570Z,65
2023-03-08T02:52:07.703Z,64
2023-03-08T02:53:08.622Z,65
2023-03-08T02:54:08.429Z,65
2023-03-08T02:55:08.427Z,65
2023-03-08T02:57:08.593Z,65
2023-03-08T02:58:08.349Z,65
2023-03-08T02:59:08.328Z,65
2023-03-08T03:00:08.228Z,65
2023-03-08T03:01:08.117Z,65
2023-03-08T03:02:07.977Z,65
2023-03-08T03:03:07.812Z,65
2023-03-08T03:04:07.720Z,65
2023-03-08T03:06:07.896Z,66
2023-03-08T03:07:07.641Z,66
2023-03-08T03:08:07.665Z,66
2023-03-08T03:09:07.663Z,66
2023-03-08T03:10:08.413Z,66
2023-03-08T03:11:07.804Z,66
2023-03-08T03:12:08.194Z,66
2023-03-08T03:13:08.228Z,66
2023-03-08T03:15:08.094Z,66
2023-03-08T03:16:07.769Z,66
2023-03-08T03:17:07.738Z,66
2023-03-08T03:19:08.630Z,66
2023-03-08T03:20:08.237Z,66
2023-03-08T03:21:08.352Z,66
2023-03-08T03:22:08.303Z,66
2023-03-08T03:24:08.053Z,66
2023-03-08T03:25:07.793Z,66
2023-03-08T03:26:08.106Z,66
2023-03-08T03:27:07.963Z,67
2023-03-08T03:28:08.000Z,67
2023-03-08T03:29:07.770Z,67
2023-03-08T03:30:07.886Z,67
2023-03-08T03:31:07.876Z,67
2023-03-08T03:32:07.818Z,67
2023-03-08T03:34:08.504Z,67
2023-03-08T03:36:08.122Z,67
2023-03-08T03:37:07.808Z,67
2023-03-08T03:38:07.544Z,67
2023-03-08T03:39:08.616Z,67
2023-03-08T03:40:08.356Z,67
2023-03-08T03:41:07.656Z,67
2023-03-08T03:42:07.893Z,67
2023-03-08T03:43:07.985Z,67
2023-03-08T03:44:07.758Z,67
2023-03-08T03:45:07.940Z,67
2023-03-08T03:46:08.345Z,67
2023-03-08T03:47:08.061Z,67
2023-03-08T03:48:07.974Z,67
2023-03-08T03:49:07.989Z,67
2023-03-08T03:50:08.035Z,67
2023-03-08T03:51:08.045Z,67
2023-03-08T03:52:07.995Z,67
2023-03-08T03:53:07.876Z,67
2023-03-08T03:54:09.540Z,67
2023-03-08T03:55:07.588Z,67
2023-03-08T03:56:07.786Z,67
2023-03-08T03:57:07.588Z,67
2023-03-08T03:58:08.669Z,67
2023-03-08T03:59:08.376Z,67
2023-03-08T04:02:07.788Z,67
2023-03-08T04:03:08.907Z,67
2023-03-08T04:06:07.857Z,67
2023-03-08T04:07:08.753Z,67
2023-03-08T04:08:08.400Z,67
2023-03-08T04:09:08.128Z,67
2023-03-08T04:10:08.210Z,67
2023-03-08T04:11:08.219Z,67
2023-03-08T04:14:08.037Z,68
2023-03-08T04:15:08.022Z,68
2023-03-08T04:17:07.869Z,68
2023-03-08T04:18:07.794Z,68
2023-03-08T04:19:07.779Z,68
2023-03-08T04:20:08.454Z,68
2023-03-08T04:21:07.630Z,68
2023-03-08T04:23:08.761Z,68
2023-03-08T04:24:08.548Z,68
2023-03-08T04:25:08.356Z,68
2023-03-08T04:27:08.336Z,68
2023-03-08T04:28:08.265Z,68
2023-03-08T04:29:08.486Z,69
2023-03-08T04:30:07.918Z,69
2023-03-08T04:31:07.920Z,69
2023-03-08T04:32:08.057Z,69
2023-03-08T04:33:07.664Z,69
2023-03-08T04:36:08.145Z,69
2023-03-08T04:37:08.008Z,69
2023-03-08T04:38:07.667Z,69
2023-03-08T04:39:08.675Z,69
2023-03-08T04:40:08.561Z,69
2023-03-08T04:41:07.767Z,69
2023-03-08T04:43:07.499Z,69
2023-03-08T04:44:07.357Z,69
2023-03-08T04:45:08.380Z,69
2023-03-08T04:46:07.511Z,70
2023-03-08T04:47:08.671Z,70
2023-03-08T04:48:08.309Z,70
2023-03-08T04:49:08.270Z,70
2023-03-08T04:50:08.235Z,70
2023-03-08T04:51:08.432Z,70
2023-03-08T04:52:08.456Z,70
2023-03-08T04:53:08.250Z,70
2023-03-08T04:54:08.135Z,70
2023-03-08T04:55:08.269Z,70
2023-03-08T04:56:08.270Z,70
2023-03-08T04:57:08.142Z,70
2023-03-08T04:58:08.020Z,70
2023-03-08T05:00:07.893Z,70
2023-03-08T05:01:07.905Z,70
2023-03-08T05:02:07.670Z,70
2023-03-08T05:03:07.751Z,70
2023-03-08T05:04:08.499Z,70
2023-03-08T05:05:08.410Z,70
2023-03-08T05:06:07.768Z,70
2023-03-08T05:08:08.429Z,70
2023-03-08T05:09:08.493Z,70
2023-03-08T05:10:08.222Z,70
2023-03-08T05:11:07.734Z,70
2023-03-08T05:12:08.640Z,70
2023-03-08T05:13:08.311Z,70
2023-03-08T05:14:08.214Z,70
2023-03-08T05:15:08.183Z,70
2023-03-08T05:16:08.298Z,70
2023-03-08T05:17:08.060Z,70
2023-03-08T05:18:07.886Z,70
2023-03-08T05:19:07.894Z,70
2023-03-08T05:20:07.777Z,70
2023-03-08T05:21:08.239Z,70
2023-03-08T05:22:08.146Z,70
2023-03-08T05:23:08.082Z,70
2023-03-08T05:26:07.976Z,70
2023-03-08T05:27:08.242Z,70
2023-03-08T05:28:08.078Z,71
2023-03-08T05:29:07.977Z,71
2023-03-08T05:30:07.832Z,71
2023-03-08T05:31:07.954Z,71
2023-03-08T05:32:08.167Z,71
2023-03-08T05:33:08.581Z,71
2023-03-08T05:34:08.518Z,71
2023-03-08T05:35:08.350Z,71
2023-03-08T05:36:08.930Z,71
2023-03-08T05:37:08.595Z,71
2023-03-08T05:38:07.657Z,71
2023-03-08T05:39:07.736Z,71
2023-03-08T05:40:08.655Z,71
2023-03-08T05:41:07.679Z,71
2023-03-08T05:42:07.707Z,71
2023-03-08T05:43:08.719Z,71
2023-03-08T05:44:08.498Z,71
2023-03-08T05:45:08.606Z,71
2023-03-08T05:46:08.149Z,71
2023-03-08T05:47:07.892Z,71
2023-03-08T05:48:07.733Z,71
2023-03-08T05:50:08.693Z,71
2023-03-08T05:51:07.641Z,71
2023-03-08T05:52:07.297Z,71
2023-03-08T05:53:08.105Z,71
2023-03-08T05:54:08.521Z,72
2023-03-08T05:55:08.642Z,72
2023-03-08T05:56:07.790Z,72
2023-03-08T05:57:07.605Z,71
2023-03-08T05:58:08.610Z,72
2023-03-08T05:59:08.472Z,72
2023-03-08T06:00:08.265Z,72
2023-03-08T06:01:07.920Z,72
2023-03-08T06:02:07.940Z,72
2023-03-08T06:03:07.705Z,72
2023-03-08T06:04:07.625Z,72
2023-03-08T06:05:08.521Z,72
2023-03-08T06:06:08.585Z,72
2023-03-08T06:07:08.635Z,72
2023-03-08T06:08:08.487Z,72
2023-03-08T06:09:08.374Z,72
2023-03-08T06:11:08.554Z,72
2023-03-08T06:13:08.186Z,72
2023-03-08T06:14:08.542Z,72
2023-03-08T06:15:08.460Z,72
2023-03-08T06:16:08.683Z,72
2023-03-08T06:17:08.367Z,72
2023-03-08T06:18:08.380Z,72
2023-03-08T06:19:08.240Z,72
2023-03-08T06:20:08.136Z,72
2023-03-08T06:21:08.256Z,72
2023-03-08T06:22:08.130Z,72
2023-03-08T06:23:08.005Z,73
2023-03-08T06:24:07.655Z,73
2023-03-08T06:25:07.911Z,73
2023-03-08T06:26:08.594Z,73
2023-03-08T06:28:08.322Z,73
2023-03-08T06:29:08.359Z,73
2023-03-08T06:30:08.043Z,73
2023-03-08T06:31:08.350Z,73
2023-03-08T06:32:08.566Z,73
2023-03-08T06:35:08.087Z,73
2023-03-08T06:38:08.482Z,73
2023-03-08T06:39:08.356Z,73
2023-03-08T06:40:08.072Z,73
2023-03-08T06:41:08.193Z,73
2023-03-08T06:42:08.275Z,73
2023-03-08T06:43:07.970Z,73
2023-03-08T06:44:07.992Z,73
2023-03-08T06:45:07.941Z,73
2023-03-08T06:46:08.266Z,73
2023-03-08T06:47:08.204Z,73
2023-03-08T06:48:07.911Z,73
2023-03-08T06:49:07.582Z,73
2023-03-08T06:50:07.866Z,73
2023-03-08T06:51:08.150Z,73
2023-03-08T06:52:08.178Z,73
2023-03-08T06:53:08.043Z,73
2023-03-08T06:54:07.799Z,73
2023-03-08T06:55:07.829Z,73
2023-03-08T06:56:08.108Z,73
2023-03-08T06:57:08.955Z,73
2023-03-08T06:58:07.963Z,73
2023-03-08T06:59:07.818Z,73
2023-03-08T07:00:07.809Z,73
2023-03-08T07:01:08.137Z,73
2023-03-08T07:02:07.777Z,73
2023-03-08T07:03:07.863Z,73
2023-03-08T07:04:07.975Z,73
2023-03-08T07:05:07.597Z,73
2023-03-08T07:06:07.991Z,73
2023-03-08T07:07:08.141Z,73
2023-03-08T07:08:07.616Z,73
2023-03-08T07:10:08.635Z,73
2023-03-08T07:11:08.332Z,73
2023-03-08T07:12:10.286Z,73
2023-03-08T07:13:08.074Z,73
2023-03-08T07:14:07.844Z,72
2023-03-08T07:15:07.977Z,73
2023-03-08T07:16:08.140Z,72
2023-03-08T07:17:07.800Z,72
2023-03-08T07:18:07.516Z,72
2023-03-08T07:19:08.671Z,73
2023-03-08T07:21:07.999Z,73
2023-03-08T07:22:07.729Z,73
2023-03-08T07:23:07.437Z,73
2023-03-08T07:24:07.699Z,73
2023-03-08T07:25:08.677Z,73
2023-03-08T07:26:07.606Z,73
2023-03-08T07:27:08.458Z,73
2023-03-08T07:28:08.141Z,73
2023-03-08T07:29:08.195Z,72
2023-03-08T07:30:08.182Z,73
2023-03-08T07:31:07.571Z,73
2023-03-08T07:32:08.616Z,72
2023-03-08T07:34:08.368Z,72
2023-03-08T07:35:08.334Z,72
2023-03-08T07:36:08.279Z,72
2023-03-08T07:37:08.350Z,72
2023-03-08T07:38:08.039Z,72
2023-03-08T07:39:07.996Z,72
2023-03-08T07:40:07.873Z,72
2023-03-08T07:41:08.222Z,72
2023-03-08T07:42:08.065Z,72
2023-03-08T07:43:07.892Z,72
2023-03-08T07:44:07.722Z,72
2023-03-08T07:45:08.545Z,71
2023-03-08T07:46:08.309Z,71
2023-03-08T07:47:08.069Z,71
2023-03-08T07:48:07.964Z,71
2023-03-08T07:49:07.792Z,71
2023-03-08T07:50:07.806Z,71
2023-03-08T07:51:08.311Z,71
2023-03-08T07:52:08.193Z,71
2023-03-08T07:53:08.123Z,71
2023-03-08T07:54:07.977Z,72
2023-03-08T07:55:07.969Z,72
2023-03-08T07:56:08.352Z,72
2023-03-08T07:57:08.176Z,72
2023-03-08T07:58:08.009Z,72
2023-03-08T07:59:07.737Z,72
2023-03-08T08:00:07.790Z,72
2023-03-08T08:01:07.981Z,72
2023-03-08T08:02:07.757Z,72
2023-03-08T08:03:07.683Z,72
2023-03-08T08:04:07.685Z,72
2023-03-08T08:05:08.620Z,72
2023-03-08T08:06:07.986Z,72
2023-03-08T08:07:07.767Z,71
2023-03-08T08:08:08.556Z,71
2023-03-08T08:09:08.447Z,71
2023-03-08T08:10:08.136Z,71
2023-03-08T08:11:08.624Z,71
2023-03-08T08:13:08.324Z,71
2023-03-08T08:14:07.878Z,71
2023-03-08T08:15:08.145Z,71
2023-03-08T08:16:08.373Z,71
2023-03-08T08:17:08.134Z,71
2023-03-08T08:18:08.044Z,70
2023-03-08T08:19:07.867Z,70
2023-03-08T08:20:07.801Z,70
2023-03-08T08:21:07.956Z,70
2023-03-08T08:22:07.892Z,70
2023-03-08T08:23:07.713Z,70
2023-03-08T08:24:08.441Z,70
2023-03-08T08:25:08.495Z,70
2023-03-08T08:26:07.683Z,70
2023-03-08T08:27:07.457Z,70
2023-03-08T08:28:07.607Z,70
2023-03-08T08:29:08.431Z,69
2023-03-08T08:30:08.488Z,69
2023-03-08T08:31:07.797Z,69
2023-03-08T08:32:07.774Z,69
2023-03-08T08:33:08.379Z,69
2023-03-08T08:34:08.419Z,69
2023-03-08T08:35:08.483Z,69
2023-03-08T08:36:08.806Z,69
2023-03-08T08:37:08.366Z,69
2023-03-08T08:38:08.539Z,69
2023-03-08T08:39:08.140Z,69
2023-03-08T08:40:08.361Z,69
2023-03-08T08:41:08.655Z,69
2023-03-08T08:42:08.485Z,69
2023-03-08T08:43:08.303Z,69
2023-03-08T08:44:08.225Z,69
2023-03-08T08:45:08.366Z,69
2023-03-08T08:46:08.730Z,69
2023-03-08T08:47:08.449Z,69
2023-03-08T08:49:08.047Z,69
2023-03-08T08:50:07.965Z,69
2023-03-08T08:51:08.583Z,68
2023-03-08T08:52:08.414Z,68
2023-03-08T08:53:08.425Z,68
2023-03-08T08:54:08.184Z,68
2023-03-08T08:56:25.500Z,68
2023-03-08T08:57:08.407Z,68
2023-03-08T08:58:08.162Z,68
2023-03-08T08:59:07.981Z,68
2023-03-08T09:00:08.107Z,67
2023-03-08T09:01:11.510Z,67
2023-03-08T09:02:09.191Z,67
2023-03-08T09:03:07.913Z,68
2023-03-08T09:04:09.163Z,68
2023-03-08T09:05:09.109Z,67
2023-03-08T09:06:08.790Z,67
2023-03-08T09:09:08.466Z,68
2023-03-08T09:10:08.141Z,68
2023-03-08T09:11:08.668Z,68
2023-03-08T09:12:08.600Z,68
2023-03-08T09:14:08.234Z,68
2023-03-08T09:15:08.245Z,68
2023-03-08T09:16:08.956Z,68
2023-03-08T09:18:08.287Z,68
2023-03-08T09:19:08.202Z,68
2023-03-08T09:20:07.947Z,68
2023-03-08T09:21:08.101Z,68
2023-03-08T09:22:08.295Z,68
2023-03-08T09:23:08.306Z,68
2023-03-08T09:24:08.187Z,69
2023-03-08T09:25:08.047Z,69
2023-03-08T09:26:08.840Z,69
2023-03-08T09:27:08.199Z,69
2023-03-08T09:28:08.072Z,69
2023-03-08T09:29:08.144Z,69
2023-03-08T09:33:08.785Z,70
2023-03-08T09:34:08.678Z,70
2023-03-08T09:35:07.986Z,70
2023-03-08T09:36:08.247Z,70
2023-03-08T09:37:08.156Z,70
2023-03-08T09:38:08.083Z,70
2023-03-08T09:39:07.790Z,70
2023-03-08T09:40:07.641Z,70
2023-03-08T09:42:08.064Z,70
2023-03-08T09:43:08.104Z,71
2023-03-08T09:45:11.490Z,71
2023-03-08T09:46:08.210Z,71
2023-03-08T09:47:07.752Z,71
2023-03-08T09:48:09.504Z,71
2023-03-08T09:49:08.859Z,71
2023-03-08T09:50:08.531Z,71
2023-03-08T09:51:08.077Z,71
2023-03-08T09:53:08.764Z,71
2023-03-08T09:55:08.794Z,71
2023-03-08T09:57:08.840Z,71
2023-03-08T09:58:08.504Z,71
2023-03-08T09:59:08.258Z,71
2023-03-08T10:00:08.481Z,71
2023-03-08T10:01:08.318Z,71
2023-03-08T10:02:08.795Z,71
2023-03-08T10:03:08.960Z,71
2023-03-08T10:04:08.611Z,72
2023-03-08T10:05:19.456Z,72
2023-03-08T10:07:08.368Z,72
2023-03-08T10:08:08.370Z,72
2023-03-08T10:09:08.080Z,72
2023-03-08T10:10:08.315Z,72
2023-03-08T10:11:08.469Z,72
2023-03-08T10:12:15.002Z,72
2023-03-08T10:14:08.697Z,72
2023-03-08T10:15:08.974Z,72
2023-03-08T10:17:08.457Z,72
2023-03-08T10:18:08.232Z,72
2023-03-08T10:19:08.028Z,72
2023-03-08T10:20:07.847Z,72
2023-03-08T10:21:08.301Z,72
2023-03-08T10:22:07.994Z,72
2023-03-08T10:23:08.074Z,72
2023-03-08T10:24:08.029Z,72
2023-03-08T10:25:07.883Z,72
2023-03-08T10:26:07.992Z,72
2023-03-08T10:27:10.146Z,72
2023-03-08T10:28:08.071Z,72
2023-03-08T10:29:07.981Z,72
2023-03-08T10:30:08.012Z,72
2023-03-08T10:31:08.516Z,73
2023-03-08T10:32:08.304Z,73
2023-03-08T10:33:08.334Z,72
2023-03-08T10:34:08.063Z,73
2023-03-08T10:35:07.805Z,73
2023-03-08T10:36:08.289Z,73
2023-03-08T10:37:08.024Z,73
2023-03-08T10:38:07.954Z,73
2023-03-08T10:40:08.829Z,73
2023-03-08T10:42:07.907Z,74
2023-03-08T10:44:08.711Z,74
2023-03-08T10:45:08.647Z,74
2023-03-08T10:47:08.574Z,74
2023-03-08T10:48:08.634Z,74
2023-03-08T10:49:08.336Z,74
2023-03-08T10:50:08.318Z,74
2023-03-08T10:51:08.486Z,74
2023-03-08T10:52:08.425Z,74
2023-03-08T10:53:08.468Z,74
2023-03-08T10:54:08.349Z,74
2023-03-08T10:55:08.246Z,74
2023-03-08T10:56:08.469Z,74
2023-03-08T10:57:08.093Z,74
2023-03-08T10:58:08.158Z,74
2023-03-08T10:59:08.062Z,74
2023-03-08T11:00:10.212Z,74
2023-03-08T11:01:08.075Z,74
2023-03-08T11:02:08.681Z,74
2023-03-08T11:03:07.908Z,74
2023-03-08T11:04:08.691Z,74
2023-03-08T11:05:08.820Z,74
2023-03-08T11:06:08.796Z,74
2023-03-08T11:07:08.509Z,74
2023-03-08T11:08:08.351Z,74
2023-03-08T11:09:08.612Z,74
2023-03-08T11:10:08.190Z,74
2023-03-08T11:11:08.515Z,74
2023-03-08T11:12:08.449Z,74
2023-03-08T11:14:08.230Z,74
2023-03-08T11:15:08.159Z,74
2023-03-08T11:16:09.004Z,74
2023-03-08T11:17:08.030Z,75
2023-03-08T11:19:08.313Z,74
2023-03-08T11:20:07.977Z,74
2023-03-08T11:21:07.976Z,74
2023-03-08T11:22:08.693Z,74
2023-03-08T11:23:08.781Z,74
2023-03-08T11:24:08.711Z,74
2023-03-08T11:25:08.576Z,74
2023-03-08T11:26:08.509Z,74
2023-03-08T11:27:08.560Z,75
2023-03-08T11:28:08.481Z,75
2023-03-08T11:29:08.203Z,75
2023-03-08T11:30:08.257Z,75
2023-03-08T11:31:08.317Z,75
2023-03-08T11:32:08.235Z,75
2023-03-08T11:34:09.073Z,75
2023-03-08T11:35:08.702Z,75
2023-03-08T11:36:08.137Z,75
2023-03-08T11:37:07.965Z,76
2023-03-08T11:38:07.805Z,76
2023-03-08T11:39:08.812Z,76
2023-03-08T11:40:08.413Z,76
2023-03-08T11:41:08.954Z,76
2023-03-08T11:42:08.455Z,76
2023-03-08T11:43:08.427Z,76
2023-03-08T11:44:08.441Z,76
2023-03-08T11:45:08.324Z,76
2023-03-08T11:46:08.627Z,77
2023-03-08T11:47:08.587Z,77
2023-03-08T11:49:08.672Z,77
2023-03-08T11:50:08.506Z,77
2023-03-08T11:52:08.455Z,77
2023-03-08T11:53:08.208Z,77
2023-03-08T11:54:08.246Z,77
2023-03-08T11:55:08.428Z,77
2023-03-08T11:56:08.691Z,77
2023-03-08T11:58:08.540Z,77
2023-03-08T12:00:08.411Z,77
2023-03-08T12:01:08.704Z,77
2023-03-08T12:02:08.623Z,78
2023-03-08T12:03:08.632Z,78
2023-03-08T12:04:10.766Z,78
2023-03-08T12:05:08.630Z,78
2023-03-08T12:06:26.692Z,78
2023-03-08T12:07:09.182Z,78
2023-03-08T12:08:08.622Z,78
2023-03-08T12:09:08.435Z,78
2023-03-08T12:10:08.413Z,78
2023-03-08T12:11:08.370Z,78
2023-03-08T12:12:09.771Z,79
2023-03-08T12:13:08.245Z,79
2023-03-08T12:14:07.984Z,79
2023-03-08T12:15:08.390Z,79
2023-03-08T12:17:08.910Z,79
2023-03-08T12:18:08.242Z,79
2023-03-08T12:19:08.248Z,79
2023-03-08T12:20:07.994Z,79
2023-03-08T12:21:08.135Z,79
2023-03-08T12:22:08.047Z,79
2023-03-08T12:23:08.382Z,79
2023-03-08T12:24:10.270Z,79
2023-03-08T12:25:08.791Z,79
2023-03-08T12:26:08.801Z,79
2023-03-08T12:28:08.564Z,79
2023-03-08T12:30:08.359Z,79
2023-03-08T12:31:26.432Z,79
2023-03-08T12:32:09.011Z,79
2023-03-08T12:33:09.225Z,79
2023-03-08T12:34:08.457Z,79
2023-03-08T12:35:07.859Z,79
2023-03-08T12:36:08.502Z,79
2023-03-08T12:37:07.963Z,79
2023-03-08T12:38:08.235Z,79
2023-03-08T12:39:08.679Z,79
2023-03-08T12:40:08.591Z,79
2023-03-08T12:41:07.926Z,79
2023-03-08T12:42:08.652Z,79
2023-03-08T12:43:08.671Z,79
2023-03-08T12:44:08.617Z,79
2023-03-08T12:45:08.505Z,79
2023-03-08T12:46:09.078Z,79
2023-03-08T12:48:08.534Z,79
2023-03-08T12:49:08.582Z,79
2023-03-08T12:50:08.188Z,79
2023-03-08T12:51:08.761Z,79
2023-03-08T12:52:08.686Z,79
2023-03-08T12:53:08.824Z,79
2023-03-08T12:54:08.862Z,79
2023-03-08T12:55:08.496Z,79
2023-03-08T12:56:07.942Z,79
2023-03-08T12:57:07.964Z,79
2023-03-08T12:58:08.458Z,79
2023-03-08T12:59:08.761Z,79
2023-03-08T13:00:07.684Z,79
2023-03-08T13:01:08.510Z,79
2023-03-08T13:02:08.010Z,79
2023-03-08T13:03:08.002Z,79
2023-03-08T13:04:08.851Z,79
2023-03-08T13:05:09.157Z,79
2023-03-08T13:06:07.939Z,79
2023-03-08T13:07:07.879Z,79
2023-03-08T13:08:08.690Z,79
2023-03-08T13:09:08.763Z,78
2023-03-08T13:10:08.509Z,78
2023-03-08T13:11:08.223Z,78
2023-03-08T13:12:07.668Z,78
2023-03-08T13:14:08.826Z,78
2023-03-08T13:15:08.599Z,78
2023-03-08T13:16:08.001Z,78
2023-03-08T13:17:08.089Z,78
2023-03-08T13:18:07.946Z,77
2023-03-08T13:19:08.066Z,77
2023-03-08T13:20:09.093Z,77
2023-03-08T13:21:07.995Z,77
2023-03-08T13:22:08.972Z,77
2023-03-08T13:23:08.990Z,77
2023-03-08T13:24:08.746Z,77
2023-03-08T13:25:08.648Z,77
2023-03-08T13:26:08.908Z,77
2023-03-08T13:27:08.520Z,77
2023-03-08T13:28:08.399Z,77
2023-03-08T13:29:08.458Z,77
2023-03-08T13:30:08.614Z,77
2023-03-08T13:31:08.870Z,76
2023-03-08T13:32:08.639Z,76
2023-03-08T13:33:08.528Z,76
2023-03-08T13:35:08.248Z,76
2023-03-08T13:36:08.922Z,76
2023-03-08T13:37:08.549Z,76
2023-03-08T13:38:08.827Z,75
2023-03-08T13:40:08.434Z,75
2023-03-08T13:41:08.885Z,75
2023-03-08T13:42:08.741Z,75
2023-03-08T13:43:08.614Z,75
2023-03-08T13:44:08.505Z,75
2023-03-08T13:45:08.572Z,75
2023-03-08T13:46:08.166Z,75
2023-03-08T13:47:07.843Z,75
2023-03-08T13:48:08.650Z,75
2023-03-08T13:49:08.714Z,75
2023-03-08T13:50:08.460Z,75
2023-03-08T13:51:08.612Z,75
2023-03-08T13:52:08.656Z,75
2023-03-08T13:53:08.551Z,74
2023-03-08T13:54:08.641Z,74
2023-03-08T13:55:08.410Z,74
2023-03-08T13:56:09.197Z,74
2023-03-08T13:57:08.860Z,74
2023-03-08T13:58:08.722Z,74
2023-03-08T13:59:08.533Z,74
2023-03-08T14:00:08.641Z,73
2023-03-08T14:01:08.951Z,73
2023-03-08T14:02:08.260Z,73
2023-03-08T14:03:08.477Z,73
2023-03-08T14:04:08.612Z,73
2023-03-08T14:05:08.383Z,73
2023-03-08T14:06:08.599Z,73
2023-03-08T14:07:08.054Z,72
2023-03-08T14:08:07.952Z,72
2023-03-08T14:09:08.248Z,72
2023-03-08T14:10:07.982Z,72
2023-03-08T14:11:08.523Z,72
2023-03-08T14:12:08.363Z,72
2023-03-08T14:14:07.825Z,72
2023-03-08T14:16:08.495Z,72
2023-03-08T14:17:08.167Z,72
2023-03-08T14:18:08.353Z,72
2023-03-08T14:19:08.140Z,72
2023-03-08T14:21:08.355Z,72
2023-03-08T14:22:08.186Z,72
2023-03-08T14:23:07.882Z,72
2023-03-08T14:24:08.917Z,72
2023-03-08T14:25:08.629Z,72
2023-03-08T14:26:08.192Z,72
2023-03-08T14:28:08.231Z,72
2023-03-08T14:29:08.026Z,72
2023-03-08T14:30:08.203Z,72
2023-03-08T14:31:08.394Z,72
2023-03-08T14:32:08.928Z,72
2023-03-08T14:33:07.939Z,72
2023-03-08T14:34:08.111Z,72
2023-03-08T14:35:08.196Z,72
2023-03-08T14:38:07.900Z,72
2023-03-08T14:39:07.873Z,72
2023-03-08T14:40:08.639Z,72
2023-03-08T14:41:07.988Z,72
2023-03-08T14:42:07.760Z,72
2023-03-08T14:43:09.259Z,72
2023-03-08T14:44:08.691Z,72
2023-03-08T14:45:08.597Z,72
2023-03-08T14:46:08.983Z,72
2023-03-08T14:47:08.619Z,72
2023-03-08T14:49:08.984Z,72
2023-03-08T14:50:08.376Z,72
2023-03-08T14:51:08.574Z,72
2023-03-08T14:52:11.496Z,72
2023-03-08T14:53:08.674Z,72
2023-03-08T14:54:08.389Z,72
2023-03-08T14:55:09.633Z,72
2023-03-08T14:56:08.663Z,72
2023-03-08T14:57:08.505Z,72
2023-03-08T14:58:08.172Z,72
2023-03-08T15:01:08.357Z,72
2023-03-08T15:02:08.292Z,72
2023-03-08T15:03:07.863Z,72
2023-03-08T15:04:08.071Z,72
2023-03-08T15:05:08.789Z,71
2023-03-08T15:06:08.098Z,71
2023-03-08T15:07:07.718Z,71
2023-03-08T15:08:08.839Z,71
2023-03-08T15:09:08.754Z,71
2023-03-08T15:10:08.693Z,71
2023-03-08T15:11:08.050Z,71
2023-03-08T15:12:07.891Z,71
2023-03-08T15:13:08.743Z,71
2023-03-08T15:14:08.735Z,71
2023-03-08T15:15:08.842Z,71
2023-03-08T15:16:08.078Z,71
2023-03-08T15:17:07.878Z,71
2023-03-08T15:18:07.823Z,71
2023-03-08T15:19:07.931Z,71
2023-03-08T15:20:08.878Z,71
2023-03-08T15:21:07.933Z,71
2023-03-08T15:22:07.836Z,71
2023-03-08T15:23:08.871Z,71
2023-03-08T15:24:08.872Z,71
2023-03-08T15:26:07.963Z,71
2023-03-08T15:27:07.899Z,71
2023-03-08T15:28:07.907Z,71
2023-03-08T15:29:08.763Z,71
2023-03-08T15:30:08.710Z,71
2023-03-08T15:31:08.126Z,71
2023-03-08T15:32:08.106Z,71
2023-03-08T15:33:08.562Z,71
2023-03-08T15:34:08.501Z,71
2023-03-08T15:35:08.397Z,71
2023-03-08T15:36:08.984Z,71
2023-03-08T15:37:08.847Z,71
2023-03-08T15:38:08.573Z,71
2023-03-08T15:39:08.484Z,71
2023-03-08T15:40:10.844Z,71
2023-03-08T15:41:10.444Z,71
2023-03-08T15:42:08.222Z,71
2023-03-08T15:43:08.377Z,71
2023-03-08T15:44:07.913Z,71
2023-03-08T15:45:08.026Z,71
2023-03-08T15:46:08.367Z,71
2023-03-08T15:48:08.093Z,71
2023-03-08T15:49:08.150Z,71
2023-03-08T15:50:08.064Z,71
2023-03-08T15:51:08.450Z,71
2023-03-08T15:52:10.397Z,71
2023-03-08T15:53:08.136Z,71